createdAt,value
2018-09-21T00:00:47.154Z,15.90
2018-09-21T00:03:15.331Z,15.80
2018-09-21T00:05:43.502Z,15.70
2018-09-21T00:08:11.685Z,15.60
2018-09-21T00:10:39.818Z,15.60
2018-09-21T00:13:07.982Z,15.60
2018-09-21T00:15:36.146Z,15.50
2018-09-21T00:18:04.294Z,15.50
2018-09-21T00:20:32.432Z,15.40
2018-09-21T00:23:00.594Z,15.30
2018-09-21T00:25:28.731Z,15.30
2018-09-21T00:27:56.883Z,15.30
2018-09-21T00:32:53.001Z,15.10
2018-09-21T00:35:21.226Z,15.10
2018-09-21T00:37:49.382Z,15.10
2018-09-21T00:40:17.545Z,15.00
2018-09-21T00:42:45.722Z,15.00
2018-09-21T00:45:13.871Z,15.00
2018-09-21T00:47:42.053Z,15.10
2018-09-21T00:50:10.178Z,15.10
2018-09-21T00:52:38.322Z,15.10
2018-09-21T00:55:06.465Z,15.20
2018-09-21T00:57:34.611Z,15.30
2018-09-21T01:00:02.759Z,15.30
2018-09-21T01:02:30.897Z,15.40
2018-09-21T01:07:26.942Z,15.50
2018-09-21T01:09:55.162Z,15.60
2018-09-21T01:12:23.301Z,15.70
2018-09-21T01:14:51.458Z,15.70
2018-09-21T01:17:19.606Z,15.70
2018-09-21T01:19:47.774Z,15.80
2018-09-21T01:22:15.922Z,15.70
2018-09-21T01:24:44.079Z,15.70
2018-09-21T01:29:42.830Z,15.60
2018-09-21T01:32:10.981Z,15.60
2018-09-21T01:34:39.150Z,15.60
2018-09-21T01:37:07.316Z,15.60
2018-09-21T01:39:35.495Z,15.60
2018-09-21T01:42:03.628Z,15.70
2018-09-21T01:44:31.767Z,15.70
2018-09-21T01:46:59.901Z,15.80
2018-09-21T01:49:28.053Z,15.80
2018-09-21T01:51:56.211Z,15.90
2018-09-21T01:54:24.353Z,15.90
2018-09-21T01:56:52.510Z,15.90
2018-09-21T01:59:20.652Z,15.90
2018-09-21T02:01:48.898Z,15.90
2018-09-21T02:06:44.938Z,15.80
2018-09-21T02:09:13.086Z,15.80
2018-09-21T02:24:01.063Z,15.90
2018-09-21T02:28:57.127Z,15.80
2018-09-21T02:31:25.257Z,15.80
2018-09-21T02:33:53.418Z,15.60
2018-09-21T02:41:17.477Z,15.10
2018-09-21T02:43:45.562Z,15.00
2018-09-21T02:46:13.728Z,14.90
2018-09-21T02:48:41.978Z,14.70
2018-09-21T02:53:37.954Z,14.80
2018-09-21T02:56:06.121Z,14.70
2018-09-21T02:58:34.277Z,14.40
2018-09-21T03:03:30.334Z,14.40
2018-09-21T03:05:58.518Z,14.30
2018-09-21T03:08:26.709Z,14.30
2018-09-21T03:13:22.784Z,14.10
2018-09-21T03:18:18.843Z,14.10
2018-09-21T03:23:14.950Z,14.20
2018-09-21T03:25:43.098Z,14.20
2018-09-21T03:28:11.265Z,14.20
2018-09-21T03:30:39.642Z,14.30
2018-09-21T03:33:07.786Z,14.50
2018-09-21T03:35:35.933Z,14.60
2018-09-21T03:38:04.110Z,14.50
2018-09-21T03:40:32.269Z,14.50
2018-09-21T03:43:00.450Z,14.40
2018-09-21T03:47:56.494Z,14.40
2018-09-21T03:50:24.648Z,14.50
2018-09-21T03:52:52.796Z,14.60
2018-09-21T04:00:16.733Z,14.70
2018-09-21T04:02:44.910Z,14.70
2018-09-21T04:05:13.053Z,14.80
2018-09-21T04:07:41.199Z,14.90
2018-09-21T04:10:09.333Z,14.90
2018-09-21T04:12:37.514Z,14.80
2018-09-21T04:17:34.104Z,14.70
2018-09-21T04:20:02.251Z,14.60
2018-09-21T04:22:30.590Z,14.60
2018-09-21T04:27:27.125Z,14.50
2018-09-21T04:29:55.269Z,14.50
2018-09-21T04:37:19.831Z,14.60
2018-09-21T04:39:48.311Z,14.60
2018-09-21T04:42:16.447Z,14.50
2018-09-21T04:44:44.599Z,14.40
2018-09-21T04:49:40.826Z,14.40
2018-09-21T04:52:09.118Z,14.30
2018-09-21T04:57:05.189Z,14.30
2018-09-21T04:59:33.358Z,14.30
2018-09-21T05:02:01.502Z,14.30
2018-09-21T05:04:29.674Z,14.40
2018-09-21T05:06:57.823Z,14.40
2018-09-21T05:09:25.982Z,14.40
2018-09-21T05:11:54.150Z,14.50
2018-09-21T05:14:22.310Z,14.60
2018-09-21T05:16:50.467Z,14.70
2018-09-21T05:19:18.639Z,14.70
2018-09-21T05:21:46.837Z,14.70
2018-09-21T05:24:15.011Z,14.60
2018-09-21T05:26:43.171Z,14.60
2018-09-21T05:29:11.317Z,14.60
2018-09-21T05:31:39.497Z,14.60
2018-09-21T05:34:07.825Z,14.60
2018-09-21T05:36:35.906Z,14.60
2018-09-21T05:39:06.258Z,14.60
2018-09-21T05:41:34.454Z,14.60
2018-09-21T05:44:02.614Z,14.70
2018-09-21T05:46:30.769Z,14.80
2018-09-21T05:51:26.842Z,15.00
2018-09-21T05:53:55.001Z,15.10
2018-09-21T05:58:51.320Z,15.20
2018-09-21T06:01:19.466Z,15.30
2018-09-21T06:03:47.614Z,15.30
2018-09-21T06:06:15.813Z,15.50
2018-09-21T06:08:43.970Z,15.50
2018-09-21T06:16:07.965Z,16.10
2018-09-21T06:18:36.102Z,16.20
2018-09-21T06:21:04.321Z,16.40
2018-09-21T06:23:32.410Z,16.60
2018-09-21T06:26:00.554Z,16.70
2018-09-21T06:28:28.685Z,16.90
2018-09-21T06:30:56.842Z,17.00
2018-09-21T06:33:25.010Z,17.20
2018-09-21T06:35:53.145Z,17.30
2018-09-21T06:38:21.278Z,17.30
2018-09-21T06:40:49.426Z,17.60
2018-09-21T06:43:17.571Z,17.70
2018-09-21T06:45:45.706Z,17.80
2018-09-21T06:48:13.854Z,17.80
2018-09-21T06:50:42.030Z,17.90
2018-09-21T06:53:10.186Z,18.00
2018-09-21T06:55:38.330Z,18.00
2018-09-21T06:58:06.474Z,18.10
2018-09-21T07:00:34.637Z,18.10
2018-09-21T07:03:02.791Z,18.10
2018-09-21T07:05:30.962Z,18.20
2018-09-21T07:07:59.154Z,18.30
2018-09-21T07:10:27.293Z,18.40
2018-09-21T07:15:23.357Z,18.60
2018-09-21T07:17:51.510Z,18.70
2018-09-21T07:20:19.662Z,18.90
2018-09-21T07:22:47.809Z,19.10
2018-09-21T07:25:15.957Z,19.30
2018-09-21T07:30:12.138Z,19.60
2018-09-21T07:32:40.350Z,19.80
2018-09-21T07:35:08.526Z,19.90
2018-09-21T07:37:36.689Z,20.00
2018-09-21T07:40:05.189Z,20.10
2018-09-21T07:42:33.330Z,20.20
2018-09-21T07:45:01.527Z,20.20
2018-09-21T07:47:29.650Z,20.30
2018-09-21T07:52:25.714Z,20.30
2018-09-21T07:54:53.853Z,20.40
2018-09-21T07:57:22.006Z,20.40
2018-09-21T07:59:50.200Z,20.50
2018-09-21T08:02:18.349Z,20.50
2018-09-21T08:04:46.494Z,20.50
2018-09-21T08:07:14.673Z,20.50
2018-09-21T08:09:42.790Z,20.50
2018-09-21T08:17:06.982Z,20.90
2018-09-21T08:24:30.913Z,21.60
2018-09-21T08:26:59.047Z,21.70
2018-09-21T08:29:27.174Z,21.80
2018-09-21T08:34:23.213Z,21.80
2018-09-21T08:36:51.341Z,21.80
2018-09-21T08:39:19.477Z,21.90
2018-09-21T08:41:47.595Z,22.10
2018-09-21T08:44:15.718Z,22.20
2018-09-21T08:46:43.842Z,22.30
2018-09-21T08:49:11.953Z,22.40
2018-09-21T08:51:40.078Z,22.50
2018-09-21T08:54:08.200Z,22.60
2018-09-21T08:56:36.329Z,22.80
2018-09-21T08:59:04.466Z,23.00
2018-09-21T09:01:32.602Z,23.20
2018-09-21T09:04:00.729Z,23.30
2018-09-21T09:06:28.858Z,23.30
2018-09-21T09:08:56.982Z,23.40
2018-09-21T09:11:25.101Z,23.50
2018-09-21T09:13:53.253Z,23.50
2018-09-21T09:26:13.014Z,23.90
2018-09-21T09:28:41.141Z,23.90
2018-09-21T09:33:37.234Z,24.00
2018-09-21T09:36:05.350Z,24.30
2018-09-21T09:38:33.476Z,24.30
2018-09-21T09:41:01.589Z,24.70
2018-09-21T09:43:29.714Z,24.90
2018-09-21T09:45:57.856Z,25.10
2018-09-21T09:48:26.059Z,25.20
2018-09-21T09:50:54.141Z,25.10
2018-09-21T09:55:50.185Z,25.20
2018-09-21T09:58:18.317Z,25.20
2018-09-21T10:00:51.417Z,25.20
2018-09-21T10:03:20.208Z,25.10
2018-09-21T10:08:16.218Z,25.10
2018-09-21T10:10:44.350Z,25.00
2018-09-21T10:13:12.469Z,24.90
2018-09-21T10:15:40.626Z,24.90
2018-09-21T10:18:08.871Z,24.90
2018-09-21T10:23:04.929Z,25.00
2018-09-21T10:25:33.433Z,25.00
2018-09-21T10:30:29.669Z,25.10
2018-09-21T10:32:57.810Z,25.10
2018-09-21T10:35:25.937Z,25.10
2018-09-21T10:37:54.310Z,25.30
2018-09-21T10:40:22.582Z,25.40
2018-09-21T10:42:50.777Z,25.40
2018-09-21T10:47:46.723Z,25.50
2018-09-21T10:52:42.805Z,25.70
2018-09-21T10:55:10.906Z,25.60
2018-09-21T11:00:08.117Z,25.40
2018-09-21T11:05:04.643Z,25.10
2018-09-21T11:07:32.780Z,25.00
2018-09-21T11:10:01.282Z,24.90
2018-09-21T11:12:29.493Z,24.90
2018-09-21T11:14:57.926Z,24.80
2018-09-21T11:17:26.050Z,24.70
2018-09-21T11:19:54.381Z,24.60
2018-09-21T11:22:22.522Z,24.50
2018-09-21T11:27:18.810Z,24.40
2018-09-21T11:29:47.001Z,24.40
2018-09-21T11:32:15.070Z,24.30
2018-09-21T11:37:11.107Z,24.20
2018-09-21T11:39:39.257Z,24.20
2018-09-21T11:42:07.386Z,24.10
2018-09-21T11:44:35.513Z,24.10
2018-09-21T11:47:03.726Z,24.10
2018-09-21T11:49:31.819Z,24.20
2018-09-21T11:51:59.963Z,24.20
2018-09-21T11:54:28.214Z,24.30
2018-09-21T11:56:56.327Z,24.40
2018-09-21T11:59:24.466Z,24.40
2018-09-21T12:01:52.686Z,24.50
2018-09-21T12:04:20.751Z,24.50
2018-09-21T12:06:48.994Z,24.60
2018-09-21T12:09:17.133Z,24.60
2018-09-21T12:11:45.257Z,24.70
2018-09-21T12:14:13.386Z,24.70
2018-09-21T12:16:41.512Z,24.80
2018-09-21T12:21:37.534Z,24.80
2018-09-21T12:24:05.670Z,24.70
2018-09-21T12:26:33.807Z,24.70
2018-09-21T12:29:01.932Z,24.60
2018-09-21T12:36:25.896Z,24.70
2018-09-21T12:38:54.010Z,24.70
2018-09-21T12:41:22.236Z,24.70
2018-09-21T12:43:50.358Z,24.60
2018-09-21T12:46:23.762Z,24.50
2018-09-21T12:58:44.691Z,23.80
2018-09-21T13:01:12.762Z,23.80
2018-09-21T13:03:40.873Z,23.90
2018-09-21T13:08:36.917Z,23.90
2018-09-21T13:11:05.030Z,24.00
2018-09-21T13:13:33.170Z,24.00
2018-09-21T13:25:52.952Z,23.70
2018-09-21T13:33:16.899Z,23.50
2018-09-21T13:35:45.035Z,23.40
2018-09-21T13:38:13.178Z,23.30
2018-09-21T13:40:41.326Z,23.20
2018-09-21T13:43:09.446Z,23.20
2018-09-21T13:48:05.697Z,23.20
2018-09-21T13:50:33.839Z,23.20
2018-09-21T13:53:01.954Z,23.30
2018-09-21T13:55:30.070Z,23.30
2018-09-21T14:05:22.008Z,23.50
2018-09-21T14:10:18.002Z,23.50
2018-09-21T14:12:46.210Z,23.50
2018-09-21T14:15:14.347Z,23.40
2018-09-21T14:17:42.486Z,23.40
2018-09-21T14:20:10.611Z,23.40
2018-09-21T14:22:38.754Z,23.40
2018-09-21T14:25:07.046Z,23.40
2018-09-21T14:27:35.225Z,23.40
2018-09-21T14:30:03.354Z,23.40
2018-09-21T14:32:31.486Z,23.40
2018-09-21T14:37:27.581Z,23.40
2018-09-21T14:39:55.742Z,23.40
2018-09-21T14:42:23.928Z,23.40
2018-09-21T14:44:52.066Z,23.30
2018-09-21T14:47:20.226Z,23.20
2018-09-21T14:49:48.359Z,23.20
2018-09-21T14:52:16.473Z,23.10
2018-09-21T14:54:44.597Z,23.10
2018-09-21T14:57:12.720Z,23.00
2018-09-21T14:59:40.851Z,23.00
2018-09-21T15:02:08.990Z,22.80
2018-09-21T15:04:37.134Z,22.80
2018-09-21T15:09:33.228Z,22.70
2018-09-21T15:12:01.362Z,22.70
2018-09-21T15:21:59.779Z,22.60
2018-09-21T15:24:27.930Z,22.60
2018-09-21T15:26:56.067Z,22.50
2018-09-21T15:29:24.218Z,22.50
2018-09-21T15:31:52.386Z,22.30
2018-09-21T15:34:20.553Z,21.40
2018-09-21T15:36:48.685Z,20.70
2018-09-21T15:39:16.836Z,20.10
2018-09-21T15:41:44.983Z,19.40
2018-09-21T15:51:37.105Z,18.20
2018-09-21T15:59:01.058Z,17.40
2018-09-21T16:01:29.346Z,17.30
2018-09-21T16:06:25.522Z,17.00
2018-09-21T16:08:53.653Z,16.90
2018-09-21T16:11:21.783Z,16.70
2018-09-21T16:13:49.962Z,16.60
2018-09-21T16:16:18.095Z,16.50
2018-09-21T16:18:46.242Z,16.40
2018-09-21T16:21:14.377Z,16.20
2018-09-21T16:23:42.500Z,16.10
2018-09-21T16:28:38.529Z,16.00
2018-09-21T16:31:06.689Z,15.80
2018-09-21T16:33:34.836Z,15.60
2018-09-21T16:36:03.051Z,15.60
2018-09-21T16:38:31.171Z,15.30
2018-09-21T16:40:59.303Z,15.10
2018-09-21T16:43:27.431Z,15.00
2018-09-21T16:45:55.582Z,14.90
2018-09-21T16:48:23.757Z,14.80
2018-09-21T16:50:51.888Z,14.70
2018-09-21T16:53:20.008Z,14.80
2018-09-21T16:55:48.142Z,14.80
2018-09-21T16:58:16.273Z,14.90
2018-09-21T17:00:44.418Z,14.90
2018-09-21T17:03:12.573Z,14.90
2018-09-21T17:05:40.723Z,14.90
2018-09-21T17:08:08.842Z,14.90
2018-09-21T17:10:36.970Z,15.00
2018-09-21T17:13:05.094Z,14.90
2018-09-21T17:25:24.817Z,14.70
2018-09-21T17:27:52.958Z,14.70
2018-09-21T17:30:21.086Z,14.50
2018-09-21T17:32:49.202Z,14.50
2018-09-21T17:35:17.329Z,14.50
2018-09-21T17:37:45.504Z,14.50
2018-09-21T17:40:13.621Z,14.50
2018-09-21T17:42:41.793Z,14.50
2018-09-21T17:45:09.881Z,14.40
2018-09-21T17:47:38.018Z,14.40
2018-09-21T17:50:06.227Z,14.40
2018-09-21T17:52:34.363Z,14.30
2018-09-21T17:55:02.514Z,14.20
2018-09-21T17:59:58.571Z,14.10
2018-09-21T18:02:26.936Z,14.00
2018-09-21T18:04:55.066Z,14.00
2018-09-21T18:07:23.212Z,14.00
2018-09-21T18:09:52.642Z,14.00
2018-09-21T18:12:21.061Z,13.90
2018-09-21T18:17:17.385Z,14.00
2018-09-21T18:19:45.530Z,14.10
2018-09-21T18:22:13.653Z,14.10
2018-09-21T18:24:41.885Z,14.20
2018-09-21T18:27:10.618Z,14.20
2018-09-21T18:29:38.889Z,14.30
2018-09-21T18:32:07.286Z,14.30
2018-09-21T18:34:35.423Z,14.30
2018-09-21T18:39:31.572Z,14.30
2018-09-21T18:41:59.638Z,14.40
2018-09-21T18:44:27.829Z,14.40
2018-09-21T18:46:55.971Z,14.40
2018-09-21T18:51:52.055Z,14.40
2018-09-21T18:59:15.962Z,14.20
2018-09-21T19:01:44.190Z,14.10
2018-09-21T19:06:40.233Z,14.10
2018-09-21T19:11:37.117Z,14.00
2018-09-21T19:14:05.514Z,13.80
2018-09-21T19:16:33.638Z,13.70
2018-09-21T19:19:01.805Z,13.70
2018-09-21T19:21:29.913Z,13.70
2018-09-21T19:23:58.073Z,13.60
2018-09-21T19:28:54.241Z,13.50
2018-09-21T19:31:22.369Z,13.50
2018-09-21T19:33:50.494Z,13.50
2018-09-21T19:36:18.737Z,13.40
2018-09-21T19:38:46.871Z,13.40
2018-09-21T19:41:14.994Z,13.40
2018-09-21T19:43:43.146Z,13.40
2018-09-21T19:56:03.033Z,13.40
2018-09-21T19:58:31.153Z,13.40
2018-09-21T20:00:59.518Z,13.40
2018-09-21T20:03:27.666Z,13.40
2018-09-21T20:05:55.855Z,13.40
2018-09-21T20:08:24.036Z,13.40
2018-09-21T20:10:52.185Z,13.40
2018-09-21T20:13:20.309Z,13.30
2018-09-21T20:15:48.442Z,13.30
2018-09-21T20:18:16.586Z,13.40
2018-09-21T20:23:12.630Z,13.30
2018-09-21T20:25:40.766Z,13.40
2018-09-21T20:30:42.250Z,13.30
2018-09-21T20:33:15.710Z,13.30
2018-09-21T20:38:11.751Z,13.20
2018-09-21T20:43:07.785Z,13.30
2018-09-21T20:45:35.905Z,13.30
2018-09-21T20:48:04.058Z,13.30
2018-09-21T20:50:32.206Z,13.30
2018-09-21T20:53:00.334Z,13.30
2018-09-21T20:55:28.473Z,13.30
2018-09-21T20:57:56.598Z,13.30
2018-09-21T21:00:24.733Z,13.40
2018-09-21T21:02:52.889Z,13.40
2018-09-21T21:10:17.632Z,13.30
2018-09-21T21:15:13.693Z,13.30
2018-09-21T21:17:41.801Z,13.30
2018-09-21T21:22:37.813Z,13.40
2018-09-21T21:25:05.949Z,13.40
2018-09-21T21:27:34.069Z,13.40
2018-09-21T21:30:02.198Z,13.40
2018-09-21T21:32:30.313Z,13.30
2018-09-21T21:34:58.441Z,13.30
2018-09-21T21:37:26.841Z,13.30
2018-09-21T21:39:55.291Z,13.30
2018-09-21T21:42:23.741Z,13.30
2018-09-21T21:44:51.855Z,13.40
2018-09-21T21:47:19.982Z,13.40
2018-09-21T21:49:48.113Z,13.50
2018-09-21T21:52:16.233Z,13.50
2018-09-21T21:54:44.362Z,13.50
2018-09-21T21:57:12.508Z,13.60
2018-09-21T21:59:40.629Z,13.50
2018-09-21T22:02:11.183Z,13.50
2018-09-21T22:04:39.450Z,13.50
2018-09-21T22:07:08.090Z,13.50
2018-09-21T22:09:36.222Z,13.50
2018-09-21T22:12:09.658Z,13.50
2018-09-21T22:14:37.781Z,13.50
2018-09-21T22:17:06.125Z,13.30
2018-09-21T22:19:34.263Z,13.40
2018-09-21T22:22:02.389Z,13.50
2018-09-21T22:24:30.512Z,13.50
2018-09-21T22:29:26.526Z,13.50
2018-09-21T22:31:54.660Z,13.50
2018-09-21T22:34:22.777Z,13.50
2018-09-21T22:36:50.911Z,13.50
2018-09-21T22:39:19.042Z,13.50
2018-09-21T22:59:11.113Z,13.50
2018-09-21T23:01:39.282Z,13.50
2018-09-21T23:06:35.301Z,13.40
2018-09-21T23:11:31.681Z,13.40
2018-09-21T23:16:27.702Z,13.30
2018-09-21T23:18:55.828Z,13.30
2018-09-21T23:21:23.945Z,13.30
2018-09-21T23:23:52.062Z,13.20
2018-09-21T23:26:20.194Z,13.20
2018-09-21T23:28:48.342Z,13.10
2018-09-21T23:31:16.474Z,13.10
2018-09-21T23:38:40.393Z,13.00
2018-09-21T23:43:36.423Z,12.90
2018-09-21T23:48:32.433Z,12.70
2018-09-21T23:51:00.565Z,12.80
2018-09-21T23:53:28.701Z,12.70
2018-09-21T23:55:56.818Z,12.70
2018-09-21T23:58:24.937Z,12.60
